Terminal Aerodrome Forecast
Issued by NWS Cleveland, OH

Home | Current Version | Previous Version | Graphics & Text | Print | Product List | Glossary On
Versions: 1 2 3 4 5 6 7 8 9 10 11 12 13 14 15 16 17 18 19 20 21
797
FTUS41 KCLE 240524
TAFERI
TAF
KERI 240524Z 2406/2506 16010G20KT P6SM OVC120
     FM241700 15015G25KT P6SM SCT050 OVC120
     FM242300 12011KT P6SM -SHRA OVC035
     FM250200 12007KT 6SM -SHRA BR OVC030=

USA.gov is the U.S. government's official web portal to all federal, state and local government web resources and services.